createdAt,value
2023-02-06T00:00:06.834Z,7.30
2023-02-06T00:03:09.911Z,7.75
2023-02-06T00:06:12.647Z,6.65
2023-02-06T00:09:15.550Z,10.20
2023-02-06T00:12:18.300Z,8.00
2023-02-06T00:15:21.043Z,8.70
2023-02-06T00:18:23.881Z,6.93
2023-02-06T00:21:28.423Z,6.45
2023-02-06T00:24:31.137Z,8.23
2023-02-06T00:27:34.031Z,11.15
2023-02-06T00:30:37.123Z,8.63
2023-02-06T00:33:40.079Z,10.63
2023-02-06T00:36:42.817Z,6.97
2023-02-06T00:39:45.576Z,8.55
2023-02-06T00:42:48.505Z,9.77
2023-02-06T00:45:53.030Z,10.20
2023-02-06T00:48:55.771Z,7.55
2023-02-06T00:51:58.577Z,9.95
2023-02-06T00:55:01.391Z,9.77
2023-02-06T00:58:05.232Z,7.45
2023-02-06T01:01:08.197Z,9.37
2023-02-06T01:04:11.219Z,7.97
2023-02-06T01:07:13.984Z,11.32
2023-02-06T01:10:16.872Z,9.20
2023-02-06T01:13:20.336Z,10.35
2023-02-06T01:16:25.012Z,11.97
2023-02-06T01:19:28.792Z,8.15
2023-02-06T01:22:35.035Z,12.25
2023-02-06T01:25:38.006Z,11.30
2023-02-06T01:28:43.707Z,7.82
2023-02-06T01:31:46.674Z,9.80
2023-02-06T01:34:49.506Z,8.20
2023-02-06T01:37:52.298Z,12.45
2023-02-06T01:40:59.518Z,8.45
2023-02-06T01:44:17.719Z,8.35
2023-02-06T01:47:20.485Z,9.77
2023-02-06T01:50:24.134Z,7.43
2023-02-06T01:53:27.134Z,9.35
2023-02-06T01:56:34.265Z,10.23
2023-02-06T01:59:41.009Z,9.20
2023-02-06T02:02:48.542Z,9.37
2023-02-06T02:05:53.944Z,10.15
2023-02-06T02:08:58.481Z,9.40
2023-02-06T02:12:02.325Z,8.00
2023-02-06T02:15:05.887Z,9.82
2023-02-06T02:18:20.642Z,8.20
2023-02-06T02:21:32.487Z,8.77
2023-02-06T02:25:04.251Z,7.50
2023-02-06T02:28:25.583Z,7.55
2023-02-06T02:31:31.560Z,8.05
2023-02-06T02:34:59.203Z,8.67
2023-02-06T02:38:14.557Z,10.10
2023-02-06T02:41:21.348Z,9.98
2023-02-06T02:44:52.989Z,10.60
2023-02-06T02:48:15.529Z,7.38
2023-02-06T02:51:18.796Z,8.27
2023-02-06T02:54:21.714Z,6.32
2023-02-06T02:57:29.144Z,6.75
2023-02-06T03:00:37.303Z,11.80
2023-02-06T03:03:42.245Z,10.18
2023-02-06T03:07:09.825Z,8.60
2023-02-06T03:10:28.646Z,9.55
2023-02-06T03:13:40.106Z,9.73
2023-02-06T03:16:47.907Z,10.98
2023-02-06T03:19:56.915Z,8.65
2023-02-06T03:23:03.112Z,12.97
2023-02-06T03:26:10.118Z,10.63
2023-02-06T03:29:16.774Z,4.82
2023-02-06T03:32:25.238Z,9.50
2023-02-06T03:35:33.192Z,10.02
2023-02-06T03:38:36.071Z,7.40
2023-02-06T03:41:40.087Z,9.45
2023-02-06T03:44:49.823Z,9.90
2023-02-06T03:47:55.275Z,7.50
2023-02-06T03:51:02.956Z,12.05
2023-02-06T03:54:07.644Z,7.63
2023-02-06T03:57:14.145Z,6.45
2023-02-06T04:00:17.499Z,10.20
2023-02-06T04:03:21.611Z,11.52
2023-02-06T04:06:24.984Z,9.82
2023-02-06T04:09:27.823Z,7.47
2023-02-06T04:12:31.479Z,7.68
2023-02-06T04:15:34.931Z,9.93
2023-02-06T04:18:37.836Z,5.75
2023-02-06T04:21:40.638Z,8.70
2023-02-06T04:24:43.441Z,8.43
2023-02-06T04:27:46.193Z,9.20
2023-02-06T04:30:49.124Z,12.40
2023-02-06T04:33:52.109Z,11.02
2023-02-06T04:36:55.394Z,10.10
2023-02-06T04:39:58.213Z,8.80
2023-02-06T04:43:00.952Z,8.77
2023-02-06T04:46:03.829Z,9.77
2023-02-06T04:49:06.611Z,8.88
2023-02-06T04:52:09.336Z,13.05
2023-02-06T04:55:12.077Z,9.43
2023-02-06T04:58:17.316Z,12.27
2023-02-06T05:01:20.937Z,9.65
2023-02-06T05:04:23.697Z,10.45
2023-02-06T05:07:26.472Z,11.00
2023-02-06T05:10:29.948Z,11.97
2023-02-06T05:13:36.508Z,9.55
2023-02-06T05:16:39.407Z,10.70
2023-02-06T05:19:42.542Z,13.48
2023-02-06T05:22:45.529Z,11.63
2023-02-06T05:25:48.304Z,11.47
2023-02-06T05:28:51.183Z,10.43
2023-02-06T05:31:54.232Z,8.82
2023-02-06T05:34:56.955Z,10.43
2023-02-06T05:37:59.632Z,7.60
2023-02-06T05:41:02.406Z,8.00
2023-02-06T05:44:05.321Z,9.75
2023-02-06T05:47:08.071Z,7.93
2023-02-06T05:50:10.955Z,8.88
2023-02-06T05:53:14.062Z,9.88
2023-02-06T05:56:16.811Z,9.73
2023-02-06T05:59:20.590Z,10.43
2023-02-06T06:02:23.709Z,13.63
2023-02-06T06:05:26.583Z,9.32
2023-02-06T06:08:29.404Z,12.05
2023-02-06T06:11:33.552Z,12.13
2023-02-06T06:14:36.281Z,15.13
2023-02-06T06:17:39.273Z,7.63
2023-02-06T06:20:42.338Z,9.98
2023-02-06T06:23:45.380Z,12.68
2023-02-06T06:26:48.224Z,12.53
2023-02-06T06:29:51.151Z,13.95
2023-02-06T06:32:53.984Z,15.65
2023-02-06T06:35:56.873Z,11.07
2023-02-06T06:38:59.878Z,15.32
2023-02-06T06:42:04.555Z,14.33
2023-02-06T06:45:07.780Z,15.57
2023-02-06T06:48:10.605Z,13.77
2023-02-06T06:51:13.592Z,11.85
2023-02-06T06:54:16.852Z,17.75
2023-02-06T06:57:20.988Z,11.83
2023-02-06T07:00:28.616Z,11.50
2023-02-06T07:03:31.585Z,10.65
2023-02-06T07:06:34.946Z,12.70
2023-02-06T07:09:37.715Z,11.30
2023-02-06T07:12:40.524Z,19.47
2023-02-06T07:15:43.823Z,11.23
2023-02-06T07:18:46.733Z,12.57
2023-02-06T07:21:50.172Z,11.77
2023-02-06T07:24:54.473Z,9.82
2023-02-06T07:27:57.401Z,11.27
2023-02-06T07:31:05.145Z,15.60
2023-02-06T07:34:07.965Z,10.68
2023-02-06T07:37:10.954Z,10.68
2023-02-06T07:40:13.878Z,6.88
2023-02-06T07:43:16.913Z,12.63
2023-02-06T07:46:21.919Z,8.65
2023-02-06T07:49:25.112Z,11.68
2023-02-06T07:52:27.919Z,10.75
2023-02-06T07:55:30.727Z,11.38
2023-02-06T07:58:33.466Z,12.83
2023-02-06T08:01:36.701Z,11.98
2023-02-06T08:04:39.984Z,13.25
2023-02-06T08:07:42.775Z,12.30
2023-02-06T08:10:45.703Z,11.95
2023-02-06T08:13:48.801Z,13.33
2023-02-06T08:16:52.018Z,8.93
2023-02-06T08:19:54.770Z,10.48
2023-02-06T08:22:57.518Z,9.88
2023-02-06T08:26:12.530Z,9.18
2023-02-06T08:29:15.336Z,12.67
2023-02-06T08:32:18.291Z,12.50
2023-02-06T08:35:22.022Z,9.35
2023-02-06T08:38:24.828Z,11.45
2023-02-06T08:41:30.677Z,10.15
2023-02-06T08:44:33.516Z,11.40
2023-02-06T08:47:36.208Z,9.38
2023-02-06T08:50:39.628Z,11.13
2023-02-06T08:53:42.381Z,10.30
2023-02-06T08:56:45.964Z,10.02
2023-02-06T08:59:49.763Z,11.60
2023-02-06T09:02:53.690Z,5.45
2023-02-06T09:06:09.688Z,9.60
2023-02-06T09:09:13.568Z,8.50
2023-02-06T09:12:16.682Z,8.77
2023-02-06T09:15:19.445Z,9.47
2023-02-06T09:18:22.182Z,10.77
2023-02-06T09:21:26.282Z,6.40
2023-02-06T09:24:30.409Z,9.98
2023-02-06T09:27:33.305Z,11.40
2023-02-06T09:30:36.168Z,9.90
2023-02-06T09:33:40.273Z,8.27
2023-02-06T09:36:43.110Z,5.18
2023-02-06T09:39:46.005Z,8.80
2023-02-06T09:42:48.787Z,13.20
2023-02-06T09:45:59.818Z,8.93
2023-02-06T09:49:11.303Z,8.00
2023-02-06T09:52:32.066Z,9.35
2023-02-06T09:55:35.165Z,8.25
2023-02-06T09:58:45.160Z,5.75
2023-02-06T10:02:38.408Z,8.17
2023-02-06T10:06:27.160Z,6.93
2023-02-06T10:09:47.543Z,7.53
2023-02-06T10:13:06.610Z,7.70
2023-02-06T10:16:30.552Z,5.82
2023-02-06T10:19:51.727Z,9.77
2023-02-06T10:23:13.093Z,6.43
2023-02-06T10:26:18.397Z,8.18
2023-02-06T10:29:26.712Z,8.02
2023-02-06T10:32:41.672Z,9.60
2023-02-06T10:36:10.495Z,7.97
2023-02-06T10:39:44.265Z,7.45
2023-02-06T10:42:52.252Z,8.23
2023-02-06T10:46:20.672Z,8.32
2023-02-06T10:49:34.111Z,8.40
2023-02-06T10:52:37.588Z,8.60
2023-02-06T10:55:55.900Z,10.70
2023-02-06T10:59:28.928Z,8.13
2023-02-06T11:02:47.487Z,6.82
2023-02-06T11:05:52.714Z,8.48
2023-02-06T11:08:56.394Z,8.47
2023-02-06T11:12:00.973Z,10.82
2023-02-06T11:15:27.507Z,5.72
2023-02-06T11:18:35.161Z,6.18
2023-02-06T11:21:51.152Z,7.70
2023-02-06T11:25:05.149Z,8.53
2023-02-06T11:28:15.241Z,8.55
2023-02-06T11:31:20.483Z,6.82
2023-02-06T11:34:51.155Z,7.30
2023-02-06T11:42:00.231Z,7.83
2023-02-06T11:45:23.659Z,4.00
2023-02-06T11:48:39.744Z,6.70
2023-02-06T11:51:48.740Z,7.22
2023-02-06T11:54:55.456Z,6.93
2023-02-06T11:58:14.105Z,9.57
2023-02-06T12:01:21.412Z,11.63
2023-02-06T12:04:34.553Z,10.20
2023-02-06T12:07:54.377Z,10.30
2023-02-06T12:11:05.946Z,11.43
2023-02-06T12:14:19.313Z,7.67
2023-02-06T12:17:36.682Z,7.72
2023-02-06T12:20:53.364Z,8.73
2023-02-06T12:24:01.475Z,10.98
2023-02-06T12:27:18.203Z,8.75
2023-02-06T12:30:36.690Z,11.33
2023-02-06T12:33:46.481Z,9.05
2023-02-06T12:37:00.414Z,5.93
2023-02-06T12:40:03.787Z,9.27
2023-02-06T12:43:13.007Z,8.52
2023-02-06T12:46:26.227Z,11.60
2023-02-06T12:49:37.034Z,8.73
2023-02-06T12:52:48.375Z,9.05
2023-02-06T12:56:00.623Z,10.13
2023-02-06T12:59:09.214Z,9.63
2023-02-06T13:02:48.811Z,5.30
2023-02-06T13:06:03.406Z,12.32
2023-02-06T13:09:07.867Z,13.43
2023-02-06T13:12:21.697Z,9.60
2023-02-06T13:15:42.428Z,9.48
2023-02-06T13:18:52.611Z,10.40
2023-02-06T13:22:10.701Z,14.50
2023-02-06T13:25:31.816Z,10.27
2023-02-06T13:28:39.284Z,9.02
2023-02-06T13:31:42.532Z,9.73
2023-02-06T13:34:45.300Z,11.27
2023-02-06T13:37:50.439Z,5.85
2023-02-06T13:41:14.975Z,7.32
2023-02-06T13:44:36.915Z,8.55
2023-02-06T13:48:05.857Z,8.65
2023-02-06T13:51:26.967Z,11.73
2023-02-06T13:54:53.518Z,6.70
2023-02-06T13:58:14.896Z,12.68
2023-02-06T14:01:20.890Z,9.23
2023-02-06T14:04:31.359Z,12.07
2023-02-06T14:07:48.268Z,10.70
2023-02-06T14:11:27.180Z,10.05
2023-02-06T14:14:52.114Z,10.02
2023-02-06T14:18:36.313Z,11.95
2023-02-06T14:21:57.154Z,10.18
2023-02-06T14:25:05.869Z,12.10
2023-02-06T14:28:36.527Z,13.10
2023-02-06T14:32:06.493Z,13.52
2023-02-06T14:35:44.653Z,14.20
2023-02-06T14:38:59.265Z,13.40
2023-02-06T14:42:31.109Z,11.60
2023-02-06T14:46:04.112Z,12.75
2023-02-06T14:49:17.473Z,14.60
2023-02-06T14:52:26.274Z,12.50
2023-02-06T14:55:37.219Z,13.27
2023-02-06T14:58:40.180Z,10.73
2023-02-06T15:01:46.079Z,13.65
2023-02-06T15:04:48.898Z,11.98
2023-02-06T15:07:59.396Z,14.05
2023-02-06T15:11:06.434Z,14.20
2023-02-06T15:14:22.085Z,10.97
2023-02-06T15:17:29.089Z,10.90
2023-02-06T15:20:43.477Z,15.93
2023-02-06T15:23:46.366Z,11.98
2023-02-06T15:27:10.277Z,9.40
2023-02-06T15:30:26.032Z,14.10
2023-02-06T15:33:32.923Z,11.25
2023-02-06T15:36:38.745Z,13.45
2023-02-06T15:39:42.338Z,12.70
2023-02-06T15:42:47.529Z,11.18
2023-02-06T15:45:52.135Z,11.67
2023-02-06T15:48:57.536Z,9.90
2023-02-06T15:52:00.489Z,10.10
2023-02-06T15:55:04.914Z,11.98
2023-02-06T15:58:07.765Z,13.02
2023-02-06T16:01:18.581Z,12.07
2023-02-06T16:04:33.852Z,13.13
2023-02-06T16:07:36.949Z,12.20
2023-02-06T16:10:40.877Z,11.82
2023-02-06T16:13:46.046Z,12.82
2023-02-06T16:17:18.096Z,13.83
2023-02-06T16:20:39.431Z,16.73
2023-02-06T16:23:49.617Z,12.40
2023-02-06T16:26:52.689Z,14.23
2023-02-06T16:29:57.546Z,15.07
2023-02-06T16:33:12.459Z,16.07
2023-02-06T16:36:17.889Z,14.90
2023-02-06T16:39:21.990Z,15.70
2023-02-06T16:42:33.468Z,15.43
2023-02-06T16:45:36.330Z,17.73
2023-02-06T16:48:39.100Z,14.30
2023-02-06T16:51:43.749Z,12.80
2023-02-06T16:54:47.256Z,14.55
2023-02-06T16:57:56.610Z,16.15
2023-02-06T17:00:59.782Z,12.65
2023-02-06T17:04:02.541Z,18.47
2023-02-06T17:07:06.169Z,23.00
2023-02-06T17:10:12.239Z,16.05
2023-02-06T17:13:20.639Z,22.35
2023-02-06T17:16:25.465Z,24.08
2023-02-06T17:19:28.250Z,15.47
2023-02-06T17:22:31.081Z,13.40
2023-02-06T17:25:33.976Z,15.95
2023-02-06T17:28:37.536Z,18.48
2023-02-06T17:31:40.486Z,19.58
2023-02-06T17:34:43.347Z,30.23
2023-02-06T17:37:46.826Z,25.83
2023-02-06T17:40:50.359Z,25.63
2023-02-06T17:43:53.311Z,19.33
2023-02-06T17:46:56.078Z,27.10
2023-02-06T17:49:58.969Z,20.60
2023-02-06T17:53:03.000Z,17.88
2023-02-06T17:56:07.359Z,19.98
2023-02-06T17:59:10.434Z,21.38
2023-02-06T18:02:14.857Z,18.17
2023-02-06T18:05:17.952Z,22.67
2023-02-06T18:08:20.765Z,24.73
2023-02-06T18:11:23.667Z,25.08
2023-02-06T18:14:26.515Z,23.05
2023-02-06T18:17:29.712Z,39.30
2023-02-06T18:20:33.065Z,44.23
2023-02-06T18:23:36.283Z,58.63
2023-02-06T18:26:39.457Z,43.08
2023-02-06T18:29:50.355Z,37.80
2023-02-06T18:32:53.615Z,27.17
2023-02-06T18:35:56.742Z,18.70
2023-02-06T18:39:00.193Z,27.55
2023-02-06T18:42:22.160Z,32.08
2023-02-06T18:45:31.258Z,23.80
2023-02-06T18:48:34.370Z,17.50
2023-02-06T18:51:37.593Z,20.33
2023-02-06T18:54:40.386Z,18.83
2023-02-06T18:57:43.402Z,18.63
2023-02-06T19:00:46.217Z,34.03
2023-02-06T19:03:50.434Z,48.97
2023-02-06T19:06:53.446Z,47.90
2023-02-06T19:10:01.349Z,77.07
2023-02-06T19:13:04.168Z,65.90
2023-02-06T19:16:13.448Z,45.83
2023-02-06T19:19:17.129Z,43.63
2023-02-06T19:22:20.292Z,52.73
2023-02-06T19:25:23.241Z,46.00
2023-02-06T19:28:26.180Z,39.47
2023-02-06T19:31:32.040Z,39.25
2023-02-06T19:34:38.057Z,32.70
2023-02-06T19:37:41.061Z,37.83
2023-02-06T19:40:46.890Z,38.47
2023-02-06T19:43:54.832Z,44.28
2023-02-06T19:46:58.222Z,41.88
2023-02-06T19:50:01.186Z,51.40
2023-02-06T19:53:05.735Z,38.10
2023-02-06T19:56:09.929Z,33.35
2023-02-06T19:59:18.857Z,36.35
2023-02-06T20:02:22.267Z,44.55
2023-02-06T20:05:27.258Z,31.90
2023-02-06T20:08:30.530Z,39.97
2023-02-06T20:11:33.945Z,29.40
2023-02-06T20:14:37.123Z,27.42
2023-02-06T20:17:40.155Z,34.03
2023-02-06T20:20:48.474Z,34.28
2023-02-06T20:23:51.650Z,33.63
2023-02-06T20:26:58.620Z,25.73
2023-02-06T20:30:01.560Z,22.13
2023-02-06T20:33:04.625Z,32.60
2023-02-06T20:36:17.928Z,24.20
2023-02-06T20:39:21.497Z,32.13
2023-02-06T20:42:27.410Z,34.28
2023-02-06T20:45:30.939Z,46.83
2023-02-06T20:48:35.494Z,45.22
2023-02-06T20:51:38.459Z,43.95
2023-02-06T20:54:41.689Z,42.80
2023-02-06T20:57:44.970Z,33.33
2023-02-06T21:00:49.860Z,39.75
2023-02-06T21:03:55.600Z,41.97
2023-02-06T21:06:58.457Z,70.95
2023-02-06T21:10:01.500Z,33.00
2023-02-06T21:13:04.420Z,60.72
2023-02-06T21:16:08.374Z,52.78
2023-02-06T21:19:13.774Z,64.93
2023-02-06T21:22:16.510Z,38.97
2023-02-06T21:25:20.613Z,26.80
2023-02-06T21:28:23.350Z,26.13
2023-02-06T21:31:34.737Z,23.77
2023-02-06T21:34:38.865Z,27.92
2023-02-06T21:37:41.640Z,27.15
2023-02-06T21:40:45.194Z,25.60
2023-02-06T21:43:48.024Z,20.20
2023-02-06T21:46:51.320Z,27.92
2023-02-06T21:49:54.102Z,18.48
2023-02-06T21:52:56.851Z,19.02
2023-02-06T21:55:59.977Z,17.50
2023-02-06T21:59:02.701Z,20.00
2023-02-06T22:02:05.418Z,22.60
2023-02-06T22:05:08.461Z,24.80
2023-02-06T22:08:11.240Z,26.30
2023-02-06T22:11:20.555Z,19.87
2023-02-06T22:14:23.339Z,21.15
2023-02-06T22:17:26.173Z,20.77
2023-02-06T22:20:28.928Z,27.10
2023-02-06T22:23:31.787Z,24.95
2023-02-06T22:26:38.760Z,23.50
2023-02-06T22:29:41.711Z,26.23
2023-02-06T22:32:44.592Z,21.67
2023-02-06T22:35:47.311Z,21.70
2023-02-06T22:38:55.687Z,19.77
2023-02-06T22:41:58.581Z,28.27
2023-02-06T22:45:01.273Z,22.52
2023-02-06T22:48:04.340Z,22.10
2023-02-06T22:51:09.336Z,23.02
2023-02-06T22:54:13.857Z,17.77
2023-02-06T22:57:16.577Z,25.33
2023-02-06T23:00:19.443Z,25.15
2023-02-06T23:03:22.173Z,23.80
2023-02-06T23:06:27.759Z,24.13
2023-02-06T23:09:35.929Z,26.05
2023-02-06T23:12:38.644Z,26.10
2023-02-06T23:15:41.681Z,20.60
2023-02-06T23:18:44.840Z,27.10
2023-02-06T23:21:50.618Z,25.38
2023-02-06T23:24:53.786Z,22.52
2023-02-06T23:27:56.730Z,25.97
2023-02-06T23:30:59.596Z,33.03
2023-02-06T23:34:03.401Z,28.08
2023-02-06T23:37:06.946Z,25.02
2023-02-06T23:40:10.468Z,26.23
2023-02-06T23:43:15.239Z,30.13
2023-02-06T23:46:20.129Z,28.52
2023-02-06T23:49:23.428Z,27.58
2023-02-06T23:52:27.171Z,34.00
2023-02-06T23:55:30.682Z,33.85
2023-02-06T23:58:33.408Z,32.13
